createdAt,value
2022-12-04T00:02:35.440Z,11.90
2022-12-04T00:05:38.023Z,12.10
2022-12-04T00:08:40.750Z,10.43
2022-12-04T00:11:43.408Z,12.23
2022-12-04T00:15:23.450Z,12.40
2022-12-04T00:18:09.947Z,11.80
2022-12-04T00:21:13.374Z,11.68
2022-12-04T00:24:15.943Z,11.32
2022-12-04T00:27:18.400Z,12.55
2022-12-04T00:30:21.280Z,12.68
2022-12-04T00:33:25.161Z,13.50
2022-12-04T00:36:29.095Z,11.30
2022-12-04T00:39:31.657Z,13.32
2022-12-04T00:42:34.168Z,11.40
2022-12-04T00:45:37.145Z,10.98
2022-12-04T00:48:41.261Z,12.45
2022-12-04T00:51:43.774Z,11.77
2022-12-04T00:54:46.347Z,9.90
2022-12-04T00:57:48.868Z,13.00
2022-12-04T01:00:51.633Z,10.75
2022-12-04T01:03:55.632Z,12.15
2022-12-04T01:07:04.626Z,12.50
2022-12-04T01:10:09.540Z,11.48
2022-12-04T01:13:12.052Z,13.13
2022-12-04T01:16:18.799Z,11.27
2022-12-04T01:19:22.764Z,11.85
2022-12-04T01:22:25.327Z,11.75
2022-12-04T01:25:27.864Z,14.90
2022-12-04T01:28:30.595Z,14.43
2022-12-04T01:31:33.522Z,11.57
2022-12-04T01:34:38.317Z,13.05
2022-12-04T01:37:41.190Z,12.23
2022-12-04T01:40:44.604Z,11.57
2022-12-04T01:43:47.187Z,12.07
2022-12-04T01:46:51.966Z,10.65
2022-12-04T01:49:56.158Z,10.45
2022-12-04T01:52:59.737Z,11.70
2022-12-04T01:56:03.074Z,11.52
2022-12-04T01:59:07.658Z,12.25
2022-12-04T02:02:12.770Z,11.70
2022-12-04T02:05:18.043Z,12.32
2022-12-04T02:08:20.766Z,12.70
2022-12-04T02:11:26.607Z,12.75
2022-12-04T02:14:32.475Z,11.48
2022-12-04T02:17:40.172Z,12.25
2022-12-04T02:20:48.534Z,10.70
2022-12-04T02:24:05.990Z,10.70
2022-12-04T02:27:09.743Z,12.30
2022-12-04T02:30:14.892Z,13.02
2022-12-04T02:33:19.017Z,14.10
2022-12-04T02:36:22.721Z,11.20
2022-12-04T02:39:26.638Z,11.65
2022-12-04T02:42:33.489Z,11.05
2022-12-04T02:45:40.055Z,12.02
2022-12-04T02:48:44.086Z,10.52
2022-12-04T02:51:47.852Z,11.23
2022-12-04T02:54:52.394Z,11.48
2022-12-04T02:57:57.148Z,11.55
2022-12-04T03:01:02.604Z,11.48
2022-12-04T03:04:08.372Z,11.98
2022-12-04T03:07:14.791Z,10.55
2022-12-04T03:10:19.512Z,10.70
2022-12-04T03:13:25.010Z,11.73
2022-12-04T03:16:30.019Z,11.73
2022-12-04T03:19:36.159Z,11.82
2022-12-04T03:22:40.896Z,11.23
2022-12-04T03:25:47.103Z,13.27
2022-12-04T03:28:53.267Z,12.25
2022-12-04T03:31:58.849Z,12.95
2022-12-04T03:35:03.513Z,12.02
2022-12-04T03:38:09.966Z,12.13
2022-12-04T03:41:14.911Z,11.43
2022-12-04T03:44:19.051Z,12.85
2022-12-04T03:47:27.090Z,11.57
2022-12-04T03:50:33.484Z,9.60
2022-12-04T03:53:39.150Z,12.98
2022-12-04T03:56:44.671Z,11.40
2022-12-04T03:59:55.396Z,11.82
2022-12-04T04:03:02.362Z,11.63
2022-12-04T04:06:07.658Z,10.90
2022-12-04T04:09:12.176Z,12.88
2022-12-04T04:12:16.354Z,11.88
2022-12-04T04:15:37.210Z,11.85
2022-12-04T04:19:00.436Z,10.20
2022-12-04T04:22:23.334Z,12.32
2022-12-04T04:25:27.029Z,10.23
2022-12-04T04:28:30.902Z,11.48
2022-12-04T04:31:37.214Z,11.45
2022-12-04T04:34:46.310Z,10.88
2022-12-04T04:37:54.646Z,10.52
2022-12-04T04:40:59.148Z,11.73
2022-12-04T04:44:06.430Z,11.00
2022-12-04T04:47:12.089Z,11.68
2022-12-04T04:50:17.584Z,10.75
2022-12-04T04:53:22.946Z,10.65
2022-12-04T04:56:25.812Z,11.93
2022-12-04T04:59:28.348Z,13.25
2022-12-04T05:02:30.963Z,11.52
2022-12-04T05:05:34.976Z,11.00
2022-12-04T05:08:37.748Z,11.77
2022-12-04T05:11:40.498Z,12.07
2022-12-04T05:14:43.352Z,13.25
2022-12-04T05:17:46.012Z,12.60
2022-12-04T05:20:49.813Z,12.85
2022-12-04T05:23:52.415Z,10.00
2022-12-04T05:26:55.020Z,12.40
2022-12-04T05:29:58.745Z,10.07
2022-12-04T05:33:01.623Z,12.57
2022-12-04T05:36:06.479Z,11.00
2022-12-04T05:39:09.088Z,11.57
2022-12-04T05:42:11.710Z,11.68
2022-12-04T05:45:14.993Z,12.20
2022-12-04T05:48:17.508Z,11.45
2022-12-04T05:51:21.335Z,10.77
2022-12-04T05:54:24.694Z,13.82
2022-12-04T05:57:29.970Z,12.90
2022-12-04T06:00:33.994Z,12.93
2022-12-04T06:03:36.653Z,9.48
2022-12-04T06:06:40.554Z,11.82
2022-12-04T06:09:43.153Z,11.95
2022-12-04T06:12:45.801Z,12.10
2022-12-04T06:15:48.310Z,12.38
2022-12-04T06:18:51.763Z,12.35
2022-12-04T06:21:55.557Z,11.35
2022-12-04T06:24:58.110Z,11.88
2022-12-04T06:28:00.735Z,13.68
2022-12-04T06:31:03.842Z,10.45
2022-12-04T06:34:07.357Z,12.98
2022-12-04T06:37:11.171Z,13.35
2022-12-04T06:40:13.886Z,12.73
2022-12-04T06:46:20.112Z,11.93
2022-12-04T06:49:22.845Z,12.80
2022-12-04T06:52:27.120Z,11.82
2022-12-04T06:55:29.603Z,13.15
2022-12-04T06:58:32.458Z,13.52
2022-12-04T07:01:35.383Z,13.95
2022-12-04T07:04:37.996Z,13.65
2022-12-04T07:07:41.980Z,13.30
2022-12-04T07:10:44.538Z,13.38
2022-12-04T07:13:47.047Z,13.10
2022-12-04T07:16:49.629Z,12.27
2022-12-04T07:19:52.454Z,12.80
2022-12-04T07:22:56.658Z,13.13
2022-12-04T07:26:00.246Z,12.98
2022-12-04T07:29:02.789Z,13.43
2022-12-04T07:32:05.440Z,15.10
2022-12-04T07:35:08.506Z,12.80
2022-12-04T07:38:12.407Z,13.18
2022-12-04T07:41:15.280Z,12.85
2022-12-04T07:44:17.837Z,12.38
2022-12-04T07:47:20.477Z,12.60
2022-12-04T07:50:23.430Z,14.65
2022-12-04T07:53:27.333Z,13.57
2022-12-04T07:56:29.895Z,12.55
2022-12-04T07:59:32.346Z,13.13
2022-12-04T08:02:35.047Z,13.52
2022-12-04T08:05:37.672Z,12.95
2022-12-04T08:08:41.595Z,14.40
2022-12-04T08:11:44.163Z,12.80
2022-12-04T08:14:46.914Z,13.95
2022-12-04T08:17:49.420Z,12.98
2022-12-04T08:20:52.093Z,12.98
2022-12-04T08:23:57.045Z,14.50
2022-12-04T08:26:59.584Z,10.32
2022-12-04T08:30:02.097Z,14.90
2022-12-04T08:33:04.577Z,26.80
2022-12-04T08:36:07.726Z,16.52
2022-12-04T08:39:13.277Z,15.05
2022-12-04T08:42:15.887Z,30.58
2022-12-04T08:45:18.529Z,16.70
2022-12-04T08:48:21.018Z,18.50
2022-12-04T08:51:24.698Z,16.55
2022-12-04T08:54:34.450Z,14.60
2022-12-04T08:57:38.615Z,16.13
2022-12-04T09:00:41.197Z,11.55
2022-12-04T09:03:44.699Z,13.30
2022-12-04T09:06:47.589Z,15.18
2022-12-04T09:09:52.013Z,14.77
2022-12-04T09:12:54.758Z,11.75
2022-12-04T09:15:57.363Z,14.77
2022-12-04T09:19:00.057Z,14.65
2022-12-04T09:22:02.753Z,14.20
2022-12-04T09:25:07.643Z,12.80
2022-12-04T09:28:10.266Z,15.30
2022-12-04T09:31:13.778Z,16.35
2022-12-04T09:34:15.334Z,13.57
2022-12-04T09:37:18.423Z,19.70
2022-12-04T09:40:29.510Z,11.80
2022-12-04T09:43:40.626Z,11.75
2022-12-04T09:46:50.942Z,12.40
2022-12-04T09:49:57.740Z,11.52
2022-12-04T09:53:02.126Z,16.30
2022-12-04T09:56:09.922Z,15.70
2022-12-04T09:59:15.300Z,14.43
2022-12-04T10:02:32.947Z,14.55
2022-12-04T10:05:43.093Z,12.93
2022-12-04T10:08:46.366Z,12.35
2022-12-04T10:11:53.849Z,21.20
2022-12-04T10:15:04.752Z,20.83
2022-12-04T10:18:13.869Z,16.50
2022-12-04T10:21:24.849Z,12.43
2022-12-04T10:24:35.792Z,12.27
2022-12-04T10:27:42.226Z,11.70
2022-12-04T10:30:46.442Z,11.88
2022-12-04T10:33:52.531Z,13.43
2022-12-04T10:36:57.474Z,12.35
2022-12-04T10:40:04.145Z,9.63
2022-12-04T10:43:14.898Z,12.68
2022-12-04T10:46:22.321Z,8.35
2022-12-04T10:49:26.183Z,11.75
2022-12-04T10:52:28.802Z,12.63
2022-12-04T10:55:33.589Z,13.23
2022-12-04T10:58:37.699Z,12.25
2022-12-04T11:01:40.699Z,10.90
2022-12-04T11:04:43.731Z,11.85
2022-12-04T11:07:48.165Z,12.20
2022-12-04T11:10:58.032Z,11.07
2022-12-04T11:14:06.556Z,12.07
2022-12-04T11:17:16.264Z,11.38
2022-12-04T11:20:20.055Z,12.48
2022-12-04T11:23:23.079Z,15.82
2022-12-04T11:26:38.168Z,14.02
2022-12-04T11:29:44.082Z,12.60
2022-12-04T11:32:47.541Z,11.88
2022-12-04T11:35:55.677Z,10.75
2022-12-04T11:39:05.931Z,11.02
2022-12-04T11:42:18.106Z,10.38
2022-12-04T11:45:23.649Z,12.75
2022-12-04T11:48:26.355Z,11.85
2022-12-04T11:51:36.187Z,10.48
2022-12-04T11:54:46.450Z,11.65
2022-12-04T11:57:55.561Z,10.85
2022-12-04T12:01:07.067Z,11.18
2022-12-04T12:04:21.321Z,12.00
2022-12-04T12:07:32.321Z,9.68
2022-12-04T12:10:42.987Z,11.68
2022-12-04T12:13:55.114Z,10.82
2022-12-04T12:17:06.636Z,10.73
2022-12-04T12:20:15.910Z,10.23
2022-12-04T12:23:23.983Z,10.70
2022-12-04T12:26:30.763Z,11.88
2022-12-04T12:29:37.891Z,12.60
2022-12-04T12:32:52.227Z,11.40
2022-12-04T12:35:59.649Z,10.60
2022-12-04T12:39:04.926Z,10.55
2022-12-04T12:42:12.379Z,10.98
2022-12-04T12:45:21.512Z,11.88
2022-12-04T12:48:27.305Z,11.23
2022-12-04T12:51:34.290Z,10.52
2022-12-04T12:54:41.981Z,10.40
2022-12-04T12:57:57.942Z,11.32
2022-12-04T13:01:03.500Z,11.13
2022-12-04T13:04:11.815Z,10.85
2022-12-04T13:07:26.186Z,11.77
2022-12-04T13:10:31.040Z,11.70
2022-12-04T13:13:35.167Z,10.70
2022-12-04T13:16:39.352Z,12.27
2022-12-04T13:19:46.147Z,12.05
2022-12-04T13:22:53.046Z,12.13
2022-12-04T13:26:02.246Z,11.75
2022-12-04T13:29:10.116Z,12.32
2022-12-04T13:32:30.225Z,11.30
2022-12-04T13:35:43.895Z,12.85
2022-12-04T13:38:57.845Z,15.77
2022-12-04T13:42:02.197Z,11.30
2022-12-04T13:45:08.440Z,15.68
2022-12-04T13:48:11.441Z,11.57
2022-12-04T13:51:28.903Z,11.50
2022-12-04T13:54:34.041Z,9.48
2022-12-04T13:57:36.643Z,13.18
2022-12-04T14:00:43.076Z,7.95
2022-12-04T14:03:50.906Z,11.77
2022-12-04T14:06:54.720Z,10.93
2022-12-04T14:09:59.614Z,5.55
2022-12-04T14:13:04.295Z,11.35
2022-12-04T14:16:10.132Z,10.25
2022-12-04T14:19:25.681Z,11.40
2022-12-04T14:22:30.726Z,10.35
2022-12-04T14:25:38.552Z,11.25
2022-12-04T14:28:45.123Z,11.23
2022-12-04T14:31:47.834Z,9.27
2022-12-04T14:34:50.745Z,10.40
2022-12-04T14:37:55.763Z,10.65
2022-12-04T14:41:01.547Z,12.48
2022-12-04T14:44:04.615Z,11.10
2022-12-04T14:47:15.344Z,10.25
2022-12-04T14:50:25.479Z,11.65
2022-12-04T14:53:34.911Z,11.55
2022-12-04T14:56:48.370Z,11.57
2022-12-04T14:59:52.177Z,12.65
2022-12-04T15:02:56.966Z,10.90
2022-12-04T15:06:03.741Z,11.40
2022-12-04T15:09:34.689Z,16.02
2022-12-04T15:12:42.212Z,12.23
2022-12-04T15:15:46.217Z,11.95
2022-12-04T15:18:55.771Z,11.07
2022-12-04T15:21:58.324Z,15.32
2022-12-04T15:25:01.203Z,11.40
2022-12-04T15:28:08.044Z,14.18
2022-12-04T15:31:14.141Z,11.35
2022-12-04T15:34:18.288Z,12.55
2022-12-04T15:37:22.870Z,10.45
2022-12-04T15:40:26.406Z,10.70
2022-12-04T15:43:32.831Z,9.73
2022-12-04T15:46:37.806Z,10.15
2022-12-04T15:49:40.723Z,8.85
2022-12-04T15:52:49.687Z,9.52
2022-12-04T15:55:52.931Z,10.95
2022-12-04T15:59:01.758Z,8.63
2022-12-04T16:02:07.516Z,8.77
2022-12-04T16:05:14.006Z,7.95
2022-12-04T16:08:23.481Z,8.68
2022-12-04T16:11:34.425Z,9.50
2022-12-04T16:14:38.471Z,8.20
2022-12-04T16:17:41.540Z,9.48
2022-12-04T16:20:44.239Z,6.75
2022-12-04T16:23:46.923Z,7.82
2022-12-04T16:26:50.405Z,8.75
2022-12-04T16:29:54.791Z,8.05
2022-12-04T16:33:00.458Z,7.47
2022-12-04T16:36:03.686Z,8.45
2022-12-04T16:39:06.646Z,7.60
2022-12-04T16:42:15.815Z,6.97
2022-12-04T16:45:24.679Z,7.50
2022-12-04T16:48:34.504Z,7.38
2022-12-04T16:51:39.594Z,7.45
2022-12-04T16:54:55.121Z,7.22
2022-12-04T16:58:03.743Z,6.75
2022-12-04T17:01:21.531Z,6.75
2022-12-04T17:04:24.587Z,6.88
2022-12-04T17:07:30.430Z,7.63
2022-12-04T17:10:36.227Z,7.60
2022-12-04T17:14:04.987Z,6.35
2022-12-04T17:17:24.664Z,7.10
2022-12-04T17:20:27.586Z,6.35
2022-12-04T17:23:30.239Z,7.43
2022-12-04T17:26:33.261Z,7.03
2022-12-04T17:29:36.005Z,7.70
2022-12-04T17:32:40.373Z,6.38
2022-12-04T17:35:43.818Z,6.38
2022-12-04T17:38:46.469Z,7.15
2022-12-04T17:41:49.721Z,6.85
2022-12-04T17:44:55.079Z,6.55
2022-12-04T17:47:59.793Z,7.13
2022-12-04T17:51:06.816Z,7.40
2022-12-04T17:54:09.465Z,6.57
2022-12-04T17:57:12.107Z,7.85
2022-12-04T18:00:15.107Z,7.03
2022-12-04T18:03:19.272Z,8.73
2022-12-04T18:06:23.338Z,9.23
2022-12-04T18:09:26.149Z,10.10
2022-12-04T18:12:28.914Z,8.82
2022-12-04T18:15:31.529Z,10.15
2022-12-04T18:18:35.520Z,8.38
2022-12-04T18:21:38.169Z,8.27
2022-12-04T18:24:43.347Z,7.65
2022-12-04T18:27:48.929Z,6.82
2022-12-04T18:30:54.443Z,8.23
2022-12-04T18:33:58.491Z,8.10
2022-12-04T18:37:01.169Z,8.07
2022-12-04T18:40:06.898Z,10.85
2022-12-04T18:43:10.407Z,10.90
2022-12-04T18:46:14.223Z,12.13
2022-12-04T18:49:19.173Z,9.02
2022-12-04T18:52:23.662Z,9.95
2022-12-04T18:55:26.315Z,8.45
2022-12-04T18:58:28.974Z,9.43
2022-12-04T19:01:32.353Z,9.32
2022-12-04T19:04:36.300Z,13.52
2022-12-04T19:07:39.782Z,11.75
2022-12-04T19:10:42.383Z,13.57
2022-12-04T19:13:44.881Z,7.60
2022-12-04T19:16:47.899Z,8.45
2022-12-04T19:19:51.879Z,9.30
2022-12-04T19:22:54.440Z,9.40
2022-12-04T19:25:57.261Z,9.20
2022-12-04T19:28:59.966Z,9.15
2022-12-04T19:32:03.111Z,9.13
2022-12-04T19:35:07.832Z,10.23
2022-12-04T19:38:10.660Z,12.20
2022-12-04T19:41:13.730Z,9.55
2022-12-04T19:44:47.227Z,8.85
2022-12-04T19:47:38.935Z,8.73
2022-12-04T19:50:43.111Z,9.40
2022-12-04T19:53:46.284Z,9.70
2022-12-04T19:56:51.231Z,9.23
2022-12-04T19:59:53.683Z,9.88
2022-12-04T20:02:56.958Z,10.70
2022-12-04T20:06:03.744Z,8.23
2022-12-04T20:09:06.898Z,7.75
2022-12-04T20:12:09.423Z,9.88
2022-12-04T20:15:12.065Z,8.55
2022-12-04T20:18:14.678Z,9.50
2022-12-04T20:21:18.563Z,10.27
2022-12-04T20:24:21.135Z,9.40
2022-12-04T20:27:23.738Z,8.07
2022-12-04T20:30:26.328Z,9.75
2022-12-04T20:33:28.858Z,9.98
2022-12-04T20:36:35.909Z,8.43
2022-12-04T20:39:38.502Z,9.05
2022-12-04T20:42:41.059Z,9.02
2022-12-04T20:45:43.612Z,9.75
2022-12-04T20:48:48.685Z,9.02
2022-12-04T20:51:53.052Z,8.43
2022-12-04T20:54:55.605Z,8.73
2022-12-04T20:57:58.197Z,9.50
2022-12-04T21:01:05.995Z,13.57
2022-12-04T21:04:08.927Z,13.13
2022-12-04T21:07:12.871Z,10.45
2022-12-04T21:10:15.603Z,10.23
2022-12-04T21:13:50.325Z,10.32
2022-12-04T21:16:52.812Z,9.73
2022-12-04T21:19:55.594Z,9.93
2022-12-04T21:22:59.627Z,11.55
2022-12-04T21:26:02.180Z,10.00
2022-12-04T21:29:05.440Z,10.20
2022-12-04T21:32:08.966Z,11.57
2022-12-04T21:35:11.508Z,10.45
2022-12-04T21:38:15.420Z,10.80
2022-12-04T21:41:33.065Z,9.77
2022-12-04T21:44:35.624Z,11.43
2022-12-04T21:47:38.297Z,8.82
2022-12-04T21:50:40.854Z,11.13
2022-12-04T21:53:44.706Z,13.13
2022-12-04T21:56:47.328Z,9.38
2022-12-04T21:59:51.621Z,11.23
2022-12-04T22:02:54.490Z,11.15
2022-12-04T22:06:00.572Z,10.55
2022-12-04T22:09:04.871Z,10.35
2022-12-04T22:12:26.750Z,14.10
2022-12-04T22:15:30.267Z,10.82
2022-12-04T22:18:33.445Z,11.27
2022-12-04T22:21:36.029Z,9.32
2022-12-04T22:24:39.883Z,11.00
2022-12-04T22:27:42.383Z,10.40
2022-12-04T22:30:45.221Z,9.73
2022-12-04T22:33:48.784Z,9.88
2022-12-04T22:36:51.330Z,10.05
2022-12-04T22:39:55.400Z,9.25
2022-12-04T22:42:57.985Z,10.60
2022-12-04T22:46:00.851Z,10.50
2022-12-04T22:49:03.361Z,10.40
2022-12-04T22:52:05.982Z,10.00
2022-12-04T22:55:10.678Z,9.10
2022-12-04T22:58:13.433Z,8.70
2022-12-04T23:01:17.975Z,9.15
2022-12-04T23:04:20.987Z,8.60
2022-12-04T23:07:24.703Z,10.45
2022-12-04T23:10:29.355Z,9.90
2022-12-04T23:13:32.182Z,9.38
2022-12-04T23:16:39.420Z,9.60
2022-12-04T23:19:42.336Z,8.98
2022-12-04T23:22:45.676Z,9.80
2022-12-04T23:25:50.165Z,8.85
2022-12-04T23:28:53.376Z,9.60
2022-12-04T23:31:57.043Z,9.43
2022-12-04T23:35:00.015Z,9.45
2022-12-04T23:38:17.578Z,9.75
2022-12-04T23:41:22.907Z,9.45
2022-12-04T23:44:25.699Z,8.65
2022-12-04T23:47:28.603Z,8.60
2022-12-04T23:50:31.878Z,9.10
2022-12-04T23:53:34.684Z,9.52
2022-12-04T23:56:38.997Z,8.30
2022-12-04T23:59:41.960Z,8.93
